createdAt,value
2018-01-22T00:00:22.083Z,95.03
2018-01-22T00:01:32.269Z,95.03
2018-01-22T00:02:42.702Z,94.93
2018-01-22T00:03:52.995Z,94.84
2018-01-22T00:05:03.181Z,94.84
2018-01-22T00:06:13.386Z,95.03
2018-01-22T00:07:23.525Z,94.84
2018-01-22T00:08:33.658Z,94.74
2018-01-22T00:09:43.823Z,95.5
2018-01-22T00:10:54.087Z,95.21
2018-01-22T00:12:04.365Z,95.12
2018-01-22T00:13:14.635Z,95.4
2018-01-22T00:14:24.792Z,95.4
2018-01-22T00:15:35.164Z,95.59
2018-01-22T00:16:45.378Z,95.31
2018-01-22T00:17:55.554Z,95.4
2018-01-22T00:19:05.712Z,95.69
2018-01-22T00:20:15.873Z,95.5
2018-01-22T00:21:26.018Z,95.21
2018-01-22T00:22:36.167Z,95.4
2018-01-22T00:23:46.272Z,95.4
2018-01-22T00:24:56.482Z,95.21
2018-01-22T00:26:06.343Z,95.4
2018-01-22T00:27:16.485Z,95.4
2018-01-22T00:28:26.586Z,95.21
2018-01-22T00:29:36.842Z,95.03
2018-01-22T00:30:47.024Z,95.12
2018-01-22T00:31:57.199Z,94.65
2018-01-22T00:33:07.456Z,95.21
2018-01-22T00:34:17.731Z,95.31
2018-01-22T00:35:27.885Z,95.31
2018-01-22T00:36:38.013Z,95.03
2018-01-22T00:37:48.164Z,95.03
2018-01-22T00:38:58.462Z,95.5
2018-01-22T00:40:08.624Z,95.12
2018-01-22T00:41:18.697Z,95.69
2018-01-22T00:42:28.828Z,95.59
2018-01-22T00:43:38.993Z,95.88
2018-01-22T00:44:49.110Z,95.59
2018-01-22T00:45:59.231Z,95.5
2018-01-22T00:47:09.362Z,95.78
2018-01-22T00:48:19.505Z,95.69
2018-01-22T00:49:29.674Z,95.4
2018-01-22T00:50:39.572Z,95.36
2018-01-22T00:51:49.700Z,95.69
2018-01-22T00:52:59.858Z,96.16
2018-01-22T00:54:10.008Z,96.45
2018-01-22T00:55:20.237Z,96.35
2018-01-22T00:56:30.400Z,95.59
2018-01-22T00:57:40.274Z,95.88
2018-01-22T00:58:50.388Z,96.07
2018-01-22T01:00:00.543Z,95.5
2018-01-22T01:01:10.756Z,95.69
2018-01-22T01:02:20.904Z,95.59
2018-01-22T01:03:31.019Z,95.21
2018-01-22T01:04:41.143Z,95.4
2018-01-22T01:05:51.272Z,95.31
2018-01-22T01:07:01.393Z,95.69
2018-01-22T01:08:11.603Z,96.07
2018-01-22T01:09:21.785Z,96.35
2018-01-22T01:10:32.027Z,96.07
2018-01-22T01:11:42.200Z,96.35
2018-01-22T01:12:52.468Z,96.07
2018-01-22T01:14:02.341Z,95.5
2018-01-22T01:15:12.519Z,95.5
2018-01-22T01:16:22.766Z,95.5
2018-01-22T01:17:32.979Z,95.69
2018-01-22T01:18:43.215Z,95.69
2018-01-22T01:19:53.399Z,95.5
2018-01-22T01:21:03.605Z,95.5
2018-01-22T01:22:13.824Z,95.59
2018-01-22T01:23:23.961Z,95.5
2018-01-22T01:24:34.102Z,95.5
2018-01-22T01:25:44.002Z,95.69
2018-01-22T01:26:54.246Z,95.88
2018-01-22T01:28:04.405Z,95.03
2018-01-22T01:29:14.535Z,95.12
2018-01-22T01:30:24.794Z,95.4
2018-01-22T01:31:34.911Z,95.69
2018-01-22T01:32:45.038Z,95.78
2018-01-22T01:33:55.171Z,95.59
2018-01-22T01:35:05.330Z,95.5
2018-01-22T01:36:15.255Z,95.59
2018-01-22T01:37:25.392Z,95.59
2018-01-22T01:38:35.545Z,95.59
2018-01-22T01:39:45.714Z,95.59
2018-01-22T01:40:55.879Z,95.5
2018-01-22T01:42:06.011Z,95.97
2018-01-22T01:43:16.149Z,95.69
2018-01-22T01:44:26.269Z,95.5
2018-01-22T01:45:36.388Z,95.5
2018-01-22T01:46:46.516Z,95.59
2018-01-22T01:47:56.712Z,95.5
2018-01-22T01:49:06.832Z,95.5
2018-01-22T01:50:16.960Z,95.5
2018-01-22T01:51:27.129Z,95.69
2018-01-22T01:52:37.235Z,95.69
2018-01-22T01:53:47.338Z,95.5
2018-01-22T01:54:57.480Z,95.4
2018-01-22T01:56:07.583Z,95.59
2018-01-22T01:57:17.359Z,95.59
2018-01-22T01:58:27.463Z,95.5
2018-01-22T01:59:37.581Z,95.4
2018-01-22T02:00:47.741Z,95.5
2018-01-22T02:01:57.960Z,95.69
2018-01-22T02:03:07.552Z,95.69
2018-01-22T02:04:17.414Z,95.88
2018-01-22T02:05:27.576Z,95.88
2018-01-22T02:06:37.722Z,95.69
2018-01-22T02:07:47.849Z,95.78
2018-01-22T02:08:57.977Z,95.5
2018-01-22T02:10:08.137Z,95.12
2018-01-22T02:11:18.270Z,95.4
2018-01-22T02:12:28.061Z,95.78
2018-01-22T02:13:38.193Z,95.5
2018-01-22T02:14:48.467Z,95.78
2018-01-22T02:15:58.624Z,95.69
2018-01-22T02:17:08.763Z,95.4
2018-01-22T02:18:18.874Z,95.4
2018-01-22T02:19:28.996Z,95.31
2018-01-22T02:20:39.163Z,95.21
2018-01-22T02:21:49.337Z,95.31
2018-01-22T02:22:59.588Z,95.21
2018-01-22T02:24:09.689Z,95.21
2018-01-22T02:25:19.833Z,95.78
2018-01-22T02:26:29.984Z,95.4
2018-01-22T02:27:40.094Z,95.12
2018-01-22T02:28:50.240Z,95.88
2018-01-22T02:30:00.477Z,95.4
2018-01-22T02:31:10.702Z,95.4
2018-01-22T02:32:20.784Z,95.5
2018-01-22T02:33:30.528Z,95.4
2018-01-22T02:34:40.752Z,94.84
2018-01-22T02:35:52.006Z,95.03
2018-01-22T02:37:02.186Z,95.03
2018-01-22T02:38:12.331Z,95.5
2018-01-22T02:39:22.557Z,95.5
2018-01-22T02:40:32.722Z,95.21
2018-01-22T02:41:42.657Z,95.21
2018-01-22T02:42:52.763Z,95.4
2018-01-22T02:44:03.030Z,95.4
2018-01-22T02:45:13.207Z,95.12
2018-01-22T02:46:23.349Z,95.21
2018-01-22T02:47:33.486Z,95.4
2018-01-22T02:48:43.608Z,95.21
2018-01-22T02:49:53.720Z,95.4
2018-01-22T02:51:03.853Z,95.21
2018-01-22T02:52:14.151Z,95.21
2018-01-22T02:53:24.290Z,95.31
2018-01-22T02:54:34.400Z,95.5
2018-01-22T02:55:45.637Z,95.5
2018-01-22T02:56:55.753Z,95.21
2018-01-22T02:58:05.901Z,95.21
2018-01-22T02:59:15.765Z,95.21
2018-01-22T03:00:25.880Z,95.4
2018-01-22T03:01:35.982Z,95.4
2018-01-22T03:02:46.123Z,95.31
2018-01-22T03:03:56.323Z,95.5
2018-01-22T03:05:06.473Z,95.4
2018-01-22T03:06:16.652Z,95.4
2018-01-22T03:07:26.771Z,95.21
2018-01-22T03:08:36.866Z,95.4
2018-01-22T03:09:46.974Z,95.4
2018-01-22T03:10:57.105Z,95.21
2018-01-22T03:12:07.306Z,95.4
2018-01-22T03:13:17.424Z,95.21
2018-01-22T03:14:27.554Z,94.84
2018-01-22T03:15:37.694Z,94.74
2018-01-22T03:16:47.837Z,95.03
2018-01-22T03:17:58.121Z,94.74
2018-01-22T03:19:08.265Z,94.93
2018-01-22T03:20:18.448Z,95.03
2018-01-22T03:21:28.594Z,95.5
2018-01-22T03:22:38.813Z,95.36
2018-01-22T03:23:49.078Z,95.21
2018-01-22T03:24:59.198Z,95.4
2018-01-22T03:26:09.319Z,95.4
2018-01-22T03:27:19.443Z,95.17
2018-01-22T03:28:29.310Z,95.12
2018-01-22T03:29:39.429Z,95.4
2018-01-22T03:30:49.582Z,95.69
2018-01-22T03:31:59.726Z,95.4
2018-01-22T03:33:09.921Z,95.4
2018-01-22T03:34:21.077Z,95.69
2018-01-22T03:35:31.334Z,95.26
2018-01-22T03:36:41.620Z,95.4
2018-01-22T03:37:51.793Z,95.36
2018-01-22T03:39:02.000Z,95.69
2018-01-22T03:40:11.778Z,95.5
2018-01-22T03:41:21.948Z,95.74
2018-01-22T03:42:32.089Z,95.36
2018-01-22T03:43:42.833Z,95.55
2018-01-22T03:44:53.014Z,95.55
2018-01-22T03:46:03.114Z,95.55
2018-01-22T03:47:13.215Z,95.93
2018-01-22T03:48:23.353Z,95.64
2018-01-22T03:49:33.483Z,95.83
2018-01-22T03:50:43.599Z,95.69
2018-01-22T03:51:53.585Z,95.55
2018-01-22T03:53:03.784Z,95.83
2018-01-22T03:54:13.953Z,95.5
2018-01-22T03:55:24.187Z,95.45
2018-01-22T03:56:34.327Z,95.59
2018-01-22T03:57:44.506Z,95.5
2018-01-22T03:58:54.651Z,95.69
2018-01-22T04:00:04.772Z,95.69
2018-01-22T04:01:14.885Z,95.5
2018-01-22T04:02:24.990Z,95.78
2018-01-22T04:03:35.152Z,95.88
2018-01-22T04:04:45.322Z,95.97
2018-01-22T04:05:55.415Z,95.69
2018-01-22T04:07:05.535Z,95.69
2018-01-22T04:08:15.707Z,95.88
2018-01-22T04:09:25.838Z,95.83
2018-01-22T04:10:35.964Z,95.5
2018-01-22T04:11:46.078Z,95.64
2018-01-22T04:12:56.177Z,95.64
2018-01-22T04:14:06.323Z,95.83
2018-01-22T04:15:16.437Z,95.5
2018-01-22T04:16:26.617Z,95.36
2018-01-22T04:17:36.892Z,95.55
2018-01-22T04:18:47.095Z,95.64
2018-01-22T04:19:56.960Z,95.5
2018-01-22T04:21:07.071Z,95.5
2018-01-22T04:22:17.299Z,95.5
2018-01-22T04:23:27.114Z,95.4
2018-01-22T04:24:37.288Z,95.64
2018-01-22T04:25:47.531Z,95.69
2018-01-22T04:26:57.625Z,95.64
2018-01-22T04:28:07.754Z,95.5
2018-01-22T04:29:17.897Z,95.88
2018-01-22T04:30:28.017Z,95.69
2018-01-22T04:31:38.138Z,95.88
2018-01-22T04:32:48.322Z,95.88
2018-01-22T04:33:58.483Z,95.69
2018-01-22T04:35:08.726Z,95.69
2018-01-22T04:36:18.846Z,95.69
2018-01-22T04:37:29.029Z,95.78
2018-01-22T04:38:39.166Z,95.4
2018-01-22T04:39:49.313Z,95.31
2018-01-22T04:40:59.458Z,95.4
2018-01-22T04:42:09.561Z,95.21
2018-01-22T04:43:19.698Z,95.4
2018-01-22T04:44:29.838Z,95.21
2018-01-22T04:45:39.924Z,95.31
2018-01-22T04:46:50.065Z,95.21
2018-01-22T04:48:00.292Z,95.31
2018-01-22T04:49:10.498Z,95.4
2018-01-22T04:50:20.613Z,95.4
2018-01-22T04:51:30.880Z,95.31
2018-01-22T04:52:41.000Z,95.21
2018-01-22T04:53:51.226Z,94.84
2018-01-22T04:55:01.384Z,94.84
2018-01-22T04:56:11.258Z,95.4
2018-01-22T04:57:21.399Z,94.84
2018-01-22T04:58:31.503Z,94.93
2018-01-22T04:59:42.576Z,95.03
2018-01-22T05:00:52.691Z,94.93
2018-01-22T05:02:02.836Z,95.03
2018-01-22T05:03:13.077Z,94.56
2018-01-22T05:04:23.010Z,94.56
2018-01-22T05:05:33.160Z,94.56
2018-01-22T05:06:43.295Z,94.84
2018-01-22T05:07:53.485Z,94.56
2018-01-22T05:09:04.574Z,94.65
2018-01-22T05:10:14.698Z,94.65
2018-01-22T05:11:24.811Z,94.65
2018-01-22T05:12:34.444Z,95.12
2018-01-22T05:13:44.400Z,94.74
2018-01-22T05:14:54.502Z,94.65
2018-01-22T05:16:04.625Z,94.74
2018-01-22T05:17:14.765Z,94.93
2018-01-22T05:18:24.957Z,94.74
2018-01-22T05:19:35.256Z,94.56
2018-01-22T05:20:45.416Z,94.65
2018-01-22T05:21:55.571Z,94.74
2018-01-22T05:23:05.681Z,94.37
2018-01-22T05:24:15.844Z,94.46
2018-01-22T05:25:25.998Z,94.37
2018-01-22T05:26:36.192Z,94.65
2018-01-22T05:27:46.316Z,94.46
2018-01-22T05:28:56.579Z,94.56
2018-01-22T05:30:06.700Z,94.46
2018-01-22T05:31:16.984Z,94.46
2018-01-22T05:32:27.206Z,94.56
2018-01-22T05:33:37.384Z,94.65
2018-01-22T05:34:47.606Z,94.37
2018-01-22T05:35:57.737Z,94.65
2018-01-22T05:37:07.852Z,94.74
2018-01-22T05:38:18.048Z,94.84
2018-01-22T05:39:28.213Z,94.65
2018-01-22T05:40:38.388Z,94.84
2018-01-22T05:41:48.529Z,94.65
2018-01-22T05:42:58.684Z,94.65
2018-01-22T05:44:08.908Z,93.89
2018-01-22T05:45:19.054Z,94.27
2018-01-22T05:46:29.245Z,93.99
2018-01-22T05:47:39.390Z,93.89
2018-01-22T05:48:49.537Z,94.18
2018-01-22T05:49:59.675Z,93.99
2018-01-22T05:51:09.811Z,94.18
2018-01-22T05:52:19.943Z,94.18
2018-01-22T05:53:30.278Z,94.27
2018-01-22T05:54:40.392Z,94.37
2018-01-22T05:55:50.542Z,93.8
2018-01-22T05:57:00.699Z,93.8
2018-01-22T05:58:11.859Z,93.89
2018-01-22T05:59:21.966Z,93.61
2018-01-22T06:00:31.833Z,93.8
2018-01-22T06:01:41.954Z,93.89
2018-01-22T06:02:52.063Z,93.7
2018-01-22T06:04:02.209Z,93.51
2018-01-22T06:05:12.332Z,93.99
2018-01-22T06:06:22.684Z,93.7
2018-01-22T06:07:32.917Z,93.89
2018-01-22T06:08:43.106Z,93.8
2018-01-22T06:09:53.279Z,93.7
2018-01-22T06:11:03.214Z,93.51
2018-01-22T06:12:13.356Z,93.61
2018-01-22T06:13:24.471Z,93.8
2018-01-22T06:14:34.573Z,93.32
2018-01-22T06:15:44.809Z,93.89
2018-01-22T06:16:55.040Z,93.8
2018-01-22T06:18:04.937Z,92.94
2018-01-22T06:19:15.090Z,93.51
2018-01-22T06:20:25.268Z,93.51
2018-01-22T06:21:35.470Z,93.51
2018-01-22T06:22:45.675Z,93.89
2018-01-22T06:23:55.611Z,93.89
2018-01-22T06:25:05.794Z,93.8
2018-01-22T06:26:16.118Z,93.42
2018-01-22T06:27:26.248Z,93.42
2018-01-22T06:28:36.420Z,93.89
2018-01-22T06:29:46.548Z,93.8
2018-01-22T06:30:56.749Z,93.89
2018-01-22T06:32:06.622Z,93.89
2018-01-22T06:33:16.804Z,93.7
2018-01-22T06:34:26.965Z,93.8
2018-01-22T06:35:37.196Z,94.18
2018-01-22T06:36:47.433Z,93.8
2018-01-22T06:37:57.588Z,92.94
2018-01-22T06:39:07.692Z,93.32
2018-01-22T06:40:17.716Z,93.13
2018-01-22T06:41:27.867Z,93.61
2018-01-22T06:42:38.110Z,93.13
2018-01-22T06:43:48.348Z,93.13
2018-01-22T06:44:58.556Z,93.23
2018-01-22T06:46:08.740Z,93.23
2018-01-22T06:47:18.991Z,93.23
2018-01-22T06:48:29.200Z,93.13
2018-01-22T06:49:39.408Z,93.13
2018-01-22T06:50:49.328Z,93.32
2018-01-22T06:51:59.439Z,93.32
2018-01-22T06:53:09.575Z,93.32
2018-01-22T06:54:20.676Z,93.13
2018-01-22T06:55:31.022Z,93.13
2018-01-22T06:56:41.274Z,92.94
2018-01-22T06:57:51.498Z,93.61
2018-01-22T06:59:01.664Z,93.42
2018-01-22T07:00:11.824Z,93.04
2018-01-22T07:01:21.951Z,92.94
2018-01-22T07:02:32.124Z,92.47
2018-01-22T07:03:42.171Z,92.85
2018-01-22T07:04:52.385Z,92.66
2018-01-22T07:06:02.601Z,93.61
2018-01-22T07:07:12.715Z,93.32
2018-01-22T07:08:22.839Z,93.23
2018-01-22T07:09:33.023Z,93.13
2018-01-22T07:10:43.349Z,92.94
2018-01-22T07:11:53.583Z,92.85
2018-01-22T07:13:03.728Z,92.94
2018-01-22T07:14:13.841Z,93.13
2018-01-22T07:15:23.963Z,92.76
2018-01-22T07:16:34.073Z,92.76
2018-01-22T07:17:44.299Z,92.66
2018-01-22T07:18:54.412Z,92.76
2018-01-22T07:20:04.596Z,92.66
2018-01-22T07:21:14.643Z,92.85
2018-01-22T07:22:24.768Z,92.85
2018-01-22T07:23:34.880Z,93.13
2018-01-22T07:24:45.093Z,92.94
2018-01-22T07:25:55.247Z,93.04
2018-01-22T07:27:05.435Z,92.94
2018-01-22T07:28:15.574Z,92.85
2018-01-22T07:29:25.753Z,93.04
2018-01-22T07:30:35.890Z,93.13
2018-01-22T07:31:46.034Z,92.47
2018-01-22T07:32:56.122Z,92.47
2018-01-22T07:34:06.258Z,92.47
2018-01-22T07:35:16.428Z,92.47
2018-01-22T07:36:26.529Z,91.91
2018-01-22T07:37:36.636Z,92.19
2018-01-22T07:38:46.812Z,92.29
2018-01-22T07:39:56.735Z,92.29
2018-01-22T07:41:06.872Z,92.1
2018-01-22T07:42:17.006Z,92.19
2018-01-22T07:43:27.195Z,92.38
2018-01-22T07:44:37.428Z,92.29
2018-01-22T07:45:47.633Z,92.47
2018-01-22T07:46:57.771Z,92.19
2018-01-22T07:48:07.939Z,92.47
2018-01-22T07:49:18.070Z,92.38
2018-01-22T07:50:28.180Z,92.47
2018-01-22T07:51:38.052Z,92.29
2018-01-22T07:52:48.156Z,92.47
2018-01-22T07:53:58.300Z,92
2018-01-22T07:55:08.479Z,92.29
2018-01-22T07:56:18.592Z,92.29
2018-01-22T07:57:28.822Z,92.19
2018-01-22T07:58:39.016Z,92.29
2018-01-22T07:59:48.866Z,92.1
2018-01-22T08:00:59.017Z,92.19
2018-01-22T08:02:09.212Z,91.91
2018-01-22T08:03:19.391Z,91.91
2018-01-22T08:04:29.532Z,91.81
2018-01-22T08:05:39.621Z,92
2018-01-22T08:06:49.770Z,92
2018-01-22T08:07:59.532Z,91.62
2018-01-22T08:09:09.394Z,92.1
2018-01-22T08:10:19.510Z,92
2018-01-22T08:11:29.610Z,91.72
2018-01-22T08:12:40.716Z,91.91
2018-01-22T08:13:50.914Z,92
2018-01-22T08:15:00.818Z,92.29
2018-01-22T08:16:10.947Z,92
2018-01-22T08:17:21.181Z,91.91
2018-01-22T08:18:31.429Z,91.91
2018-01-22T08:19:41.553Z,92.1
2018-01-22T08:20:51.758Z,92.29
2018-01-22T08:22:01.875Z,92.19
2018-01-22T08:23:11.709Z,92.19
2018-01-22T08:24:21.827Z,92.19
2018-01-22T08:25:31.605Z,91.91
2018-01-22T08:26:42.071Z,91.15
2018-01-22T08:27:53.165Z,91.43
2018-01-22T08:29:02.738Z,91.91
2018-01-22T08:30:12.880Z,91.62
2018-01-22T08:31:23.008Z,91.72
2018-01-22T08:32:33.119Z,91.53
2018-01-22T08:33:43.304Z,91.62
2018-01-22T08:34:53.464Z,91.24
2018-01-22T08:36:03.735Z,91.24
2018-01-22T08:37:13.917Z,91.24
2018-01-22T08:38:24.015Z,91.91
2018-01-22T08:39:34.157Z,91.91
2018-01-22T08:40:44.316Z,91.91
2018-01-22T08:41:54.455Z,91.24
2018-01-22T08:43:04.404Z,91.15
2018-01-22T08:44:14.555Z,91.15
2018-01-22T08:45:24.661Z,91.34
2018-01-22T08:46:34.835Z,91.15
2018-01-22T08:47:44.671Z,91.34
2018-01-22T08:48:54.832Z,90.96
2018-01-22T08:50:04.987Z,91.15
2018-01-22T08:51:15.237Z,91.53
2018-01-22T08:52:25.389Z,91.43
2018-01-22T08:53:35.681Z,91.53
2018-01-22T08:54:45.865Z,90.86
2018-01-22T08:55:56.119Z,91.15
2018-01-22T08:57:06.001Z,91.15
2018-01-22T08:58:17.090Z,91.05
2018-01-22T08:59:27.221Z,91.43
2018-01-22T09:00:37.408Z,91.48
2018-01-22T09:01:47.629Z,91.43
2018-01-22T09:02:57.843Z,91.34
2018-01-22T09:04:08.049Z,91.1
2018-01-22T09:05:18.161Z,91.38
2018-01-22T09:06:28.279Z,91.38
2018-01-22T09:07:38.416Z,91.38
2018-01-22T09:08:48.570Z,91.67
2018-01-22T09:09:58.315Z,90.91
2018-01-22T09:11:08.475Z,91.57
2018-01-22T09:12:18.837Z,90.81
2018-01-22T09:13:28.994Z,90.81
2018-01-22T09:14:39.163Z,90.81
2018-01-22T09:15:49.376Z,91
2018-01-22T09:16:59.556Z,90.91
2018-01-22T09:18:09.736Z,90.63
2018-01-22T09:19:19.885Z,90.53
2018-01-22T09:20:30.026Z,90.53
2018-01-22T09:21:40.162Z,90.81
2018-01-22T09:22:50.273Z,91
2018-01-22T09:24:00.421Z,90.91
2018-01-22T09:25:10.558Z,91
2018-01-22T09:26:20.780Z,91
2018-01-22T09:27:30.902Z,90.91
2018-01-22T09:28:41.020Z,90.81
2018-01-22T09:29:51.311Z,91.62
2018-01-22T09:31:01.431Z,91.34
2018-01-22T09:32:11.583Z,91.19
2018-01-22T09:33:21.734Z,91.48
2018-01-22T09:34:31.922Z,91.38
2018-01-22T09:35:42.081Z,91.48
2018-01-22T09:36:51.687Z,90.91
2018-01-22T09:38:01.814Z,90.63
2018-01-22T09:39:11.960Z,91.19
2018-01-22T09:40:22.168Z,90.81
2018-01-22T09:41:32.333Z,91.29
2018-01-22T09:42:42.544Z,91.57
2018-01-22T09:43:52.804Z,91.48
2018-01-22T09:45:02.967Z,90.72
2018-01-22T09:46:13.184Z,90.72
2018-01-22T09:47:23.331Z,91
2018-01-22T09:48:33.556Z,90.72
2018-01-22T09:49:43.776Z,90.81
2018-01-22T09:50:53.996Z,90.81
2018-01-22T09:52:04.162Z,90.53
2018-01-22T09:53:14.344Z,90.81
2018-01-22T09:54:24.445Z,90.53
2018-01-22T09:55:34.582Z,90.63
2018-01-22T09:56:44.704Z,90.81
2018-01-22T09:57:54.918Z,90.53
2018-01-22T09:59:05.049Z,90.53
2018-01-22T10:00:15.184Z,91
2018-01-22T10:01:25.327Z,90.81
2018-01-22T10:02:35.450Z,91.1
2018-01-22T10:03:45.570Z,90.81
2018-01-22T10:04:55.704Z,91
2018-01-22T10:06:05.895Z,90.34
2018-01-22T10:07:16.151Z,90.25
2018-01-22T10:08:26.307Z,90.81
2018-01-22T10:09:36.474Z,90.53
2018-01-22T10:10:46.916Z,90.63
2018-01-22T10:11:57.072Z,90.44
2018-01-22T10:13:06.984Z,90.15
2018-01-22T10:14:17.095Z,90.44
2018-01-22T10:15:27.299Z,90.15
2018-01-22T10:16:37.431Z,90.34
2018-01-22T10:17:47.721Z,90.63
2018-01-22T10:18:57.954Z,90.72
2018-01-22T10:20:08.106Z,90.34
2018-01-22T10:21:18.284Z,90.44
2018-01-22T10:22:28.604Z,90.06
2018-01-22T10:23:38.727Z,90.06
2018-01-22T10:24:48.981Z,90.15
2018-01-22T10:25:59.232Z,90.34
2018-01-22T10:27:09.484Z,90.34
2018-01-22T10:28:19.738Z,89.87
2018-01-22T10:29:29.943Z,90.06
2018-01-22T10:30:41.069Z,90.06
2018-01-22T10:31:51.327Z,89.96
2018-01-22T10:33:01.527Z,90.06
2018-01-22T10:34:11.783Z,89.68
2018-01-22T10:35:21.898Z,89.58
2018-01-22T10:36:32.062Z,89.49
2018-01-22T10:37:42.245Z,89.68
2018-01-22T10:38:52.394Z,90.06
2018-01-22T10:40:02.580Z,89.96
2018-01-22T10:41:12.736Z,89.68
2018-01-22T10:42:22.967Z,89.49
2018-01-22T10:43:33.116Z,89.77
2018-01-22T10:44:43.286Z,89.49
2018-01-22T10:45:53.442Z,89.77
2018-01-22T10:47:03.717Z,89.39
2018-01-22T10:48:13.942Z,89.96
2018-01-22T10:49:24.302Z,89.58
2018-01-22T10:50:34.603Z,89.2
2018-01-22T10:51:44.741Z,89.3
2018-01-22T10:52:55.004Z,89.39
2018-01-22T10:54:05.207Z,89.01
2018-01-22T10:55:15.345Z,89.2
2018-01-22T10:56:25.564Z,89.11
2018-01-22T10:57:35.744Z,89.01
2018-01-22T10:58:45.935Z,89.01
2018-01-22T10:59:56.202Z,89.11
2018-01-22T11:01:05.968Z,89.2
2018-01-22T11:02:16.250Z,89.39
2018-01-22T11:03:26.420Z,89.3
2018-01-22T11:04:36.572Z,89.39
2018-01-22T11:05:46.693Z,89.39
2018-01-22T11:06:56.808Z,89.49
2018-01-22T11:08:06.953Z,89.68
2018-01-22T11:09:17.071Z,89.58
2018-01-22T11:10:27.207Z,89.3
2018-01-22T11:11:37.409Z,89.68
2018-01-22T11:12:47.659Z,89.68
2018-01-22T11:13:57.826Z,89.87
2018-01-22T11:15:08.072Z,89.96
2018-01-22T11:16:18.011Z,90.15
2018-01-22T11:17:28.165Z,90.53
2018-01-22T11:18:38.339Z,90.34
2018-01-22T11:19:48.503Z,90.72
2018-01-22T11:20:58.004Z,90.63
2018-01-22T11:22:08.137Z,90.81
2018-01-22T11:23:18.275Z,90.81
2018-01-22T11:24:28.412Z,91.1
2018-01-22T11:25:38.543Z,90.25
2018-01-22T11:26:48.742Z,90.91
2018-01-22T11:27:58.901Z,90.34
2018-01-22T11:29:09.032Z,90.15
2018-01-22T11:30:19.174Z,90.81
2018-01-22T11:31:29.377Z,90.81
2018-01-22T11:32:39.563Z,90.91
2018-01-22T11:33:49.680Z,91
2018-01-22T11:34:59.842Z,90.53
2018-01-22T11:36:10.184Z,90.44
2018-01-22T11:37:20.325Z,90.91
2018-01-22T11:38:30.468Z,90.91
2018-01-22T11:39:40.674Z,90.91
2018-01-22T11:40:50.806Z,90.72
2018-01-22T11:42:00.939Z,90.81
2018-01-22T11:43:11.069Z,91.48
2018-01-22T11:44:21.191Z,91.57
2018-01-22T11:45:31.360Z,91.38
2018-01-22T11:46:41.495Z,91
2018-01-22T11:47:51.641Z,91.19
2018-01-22T11:49:01.761Z,91.1
2018-01-22T11:50:11.919Z,91.48
2018-01-22T11:51:22.046Z,91.38
2018-01-22T11:52:32.383Z,91.38
2018-01-22T11:53:42.617Z,91.48
2018-01-22T11:54:52.820Z,91.86
2018-01-22T11:56:03.047Z,91.52
2018-01-22T11:57:13.236Z,91.43
2018-01-22T11:58:23.398Z,91.52
2018-01-22T11:59:33.597Z,91.71
2018-01-22T12:00:43.847Z,91.52
2018-01-22T12:01:53.983Z,91.38
2018-01-22T12:03:04.362Z,91.48
2018-01-22T12:04:14.505Z,91.43
2018-01-22T12:05:24.804Z,91.29
2018-01-22T12:06:35.071Z,91.38
2018-01-22T12:07:45.257Z,91.29
2018-01-22T12:08:55.483Z,91.29
2018-01-22T12:10:05.781Z,91.29
2018-01-22T12:11:15.932Z,91.48
2018-01-22T12:12:26.081Z,91.38
2018-01-22T12:13:36.294Z,91.57
2018-01-22T12:14:46.238Z,92.05
2018-01-22T12:15:56.373Z,91.95
2018-01-22T12:17:06.567Z,92.14
2018-01-22T12:18:16.711Z,92.05
2018-01-22T12:19:26.885Z,92.05
2018-01-22T12:20:37.030Z,92.09
2018-01-22T12:21:47.175Z,92.09
2018-01-22T12:22:57.296Z,92
2018-01-22T12:24:07.530Z,91.62
2018-01-22T12:25:17.662Z,91.52
2018-01-22T12:26:27.799Z,91.52
2018-01-22T12:27:37.952Z,92
2018-01-22T12:28:48.125Z,92.09
2018-01-22T12:29:58.271Z,92.09
2018-01-22T12:31:08.410Z,92
2018-01-22T12:32:18.558Z,91.9
2018-01-22T12:33:28.677Z,92.09
2018-01-22T12:34:38.796Z,91.9
2018-01-22T12:35:48.934Z,91.43
2018-01-22T12:36:58.737Z,91.52
2018-01-22T12:38:09.045Z,91.52
2018-01-22T12:39:19.244Z,91.62
2018-01-22T12:40:29.398Z,91.62
2018-01-22T12:41:39.532Z,91.52
2018-01-22T12:42:49.697Z,91.71
2018-01-22T12:43:59.804Z,91.52
2018-01-22T12:45:09.964Z,91.9
2018-01-22T12:46:20.104Z,92.09
2018-01-22T12:47:30.294Z,92.09
2018-01-22T12:48:40.504Z,91.81
2018-01-22T12:49:50.796Z,91.71
2018-01-22T12:51:00.945Z,92
2018-01-22T12:52:11.084Z,91.81
2018-01-22T12:53:21.232Z,92.09
2018-01-22T12:54:32.364Z,92
2018-01-22T12:55:42.538Z,92.28
2018-01-22T12:56:52.669Z,92.38
2018-01-22T12:58:02.913Z,92.57
2018-01-22T12:59:13.052Z,92.38
2018-01-22T13:00:23.280Z,92.28
2018-01-22T13:01:33.226Z,92.19
2018-01-22T13:02:43.373Z,92.28
2018-01-22T13:03:53.518Z,92.28
2018-01-22T13:05:03.730Z,92.19
2018-01-22T13:06:13.534Z,92.33
2018-01-22T13:07:23.712Z,92.57
2018-01-22T13:08:33.855Z,92.57
2018-01-22T13:09:44.024Z,92.43
2018-01-22T13:10:54.177Z,92.52
2018-01-22T13:12:04.442Z,92.71
2018-01-22T13:13:14.758Z,92.94
2018-01-22T13:14:25.042Z,92.71
2018-01-22T13:15:35.236Z,93.08
2018-01-22T13:16:45.404Z,92.71
2018-01-22T13:17:55.606Z,92.71
2018-01-22T13:19:05.747Z,92.71
2018-01-22T13:20:16.027Z,92.76
2018-01-22T13:21:26.186Z,92.66
2018-01-22T13:22:36.350Z,92.71
2018-01-22T13:23:47.571Z,92.94
2018-01-22T13:24:57.851Z,93.04
2018-01-22T13:26:08.135Z,92.76
2018-01-22T13:27:18.296Z,92.57
2018-01-22T13:28:28.481Z,92.94
2018-01-22T13:29:38.856Z,92.94
2018-01-22T13:30:49.076Z,92.85
2018-01-22T13:31:59.357Z,92.66
2018-01-22T13:33:09.496Z,92.85
2018-01-22T13:34:19.668Z,93.04
2018-01-22T13:35:29.853Z,92.94
2018-01-22T13:36:40.085Z,92.76
2018-01-22T13:37:50.248Z,92.94
2018-01-22T13:39:00.382Z,92.76
2018-01-22T13:40:10.490Z,92.94
2018-01-22T13:41:20.705Z,92.76
2018-01-22T13:42:30.841Z,93.13
2018-01-22T13:43:40.978Z,93.13
2018-01-22T13:44:51.100Z,92.94
2018-01-22T13:46:01.378Z,92.94
2018-01-22T13:47:11.493Z,93.04
2018-01-22T13:48:21.626Z,92.94
2018-01-22T13:49:31.779Z,93.13
2018-01-22T13:50:41.901Z,92.61
2018-01-22T13:51:52.038Z,92.76
2018-01-22T13:53:02.187Z,92.66
2018-01-22T13:54:12.106Z,92.71
2018-01-22T13:55:22.342Z,93.56
2018-01-22T13:56:32.585Z,93.37
2018-01-22T13:57:42.747Z,93.46
2018-01-22T13:58:52.623Z,93.18
2018-01-22T14:00:02.752Z,93.27
2018-01-22T14:01:12.874Z,93.18
2018-01-22T14:02:23.149Z,93.18
2018-01-22T14:03:33.285Z,93.18
2018-01-22T14:04:43.506Z,93.37
2018-01-22T14:05:53.688Z,93.75
2018-01-22T14:07:03.937Z,93.56
2018-01-22T14:08:14.223Z,93.84
2018-01-22T14:09:24.410Z,93.65
2018-01-22T14:10:34.599Z,94.04
2018-01-22T14:11:44.814Z,93.84
2018-01-22T14:12:54.981Z,93.94
2018-01-22T14:14:05.060Z,93.75
2018-01-22T14:15:15.181Z,94.04
2018-01-22T14:16:25.373Z,94.04
2018-01-22T14:17:35.507Z,93.56
2018-01-22T14:18:45.700Z,93.75
2018-01-22T14:19:55.851Z,94.42
2018-01-22T14:21:06.038Z,94.32
2018-01-22T14:22:16.340Z,93.84
2018-01-22T14:23:26.530Z,94.23
2018-01-22T14:24:36.327Z,94.42
2018-01-22T14:25:46.508Z,94.04
2018-01-22T14:26:56.761Z,94.32
2018-01-22T14:28:06.629Z,94.32
2018-01-22T14:29:16.893Z,94.79
2018-01-22T14:30:27.041Z,94.51
2018-01-22T14:31:37.153Z,94.89
2018-01-22T14:32:47.259Z,94.7
2018-01-22T14:33:57.394Z,94.32
2018-01-22T14:35:07.521Z,94.7
2018-01-22T14:36:17.678Z,94.79
2018-01-22T14:37:27.826Z,94.89
2018-01-22T14:38:38.004Z,94.6
2018-01-22T14:39:48.139Z,94.7
2018-01-22T14:40:58.298Z,94.89
2018-01-22T14:42:08.605Z,94.51
2018-01-22T14:43:18.806Z,94.89
2018-01-22T14:44:28.991Z,95.07
2018-01-22T14:45:39.133Z,94.51
2018-01-22T14:46:49.281Z,94.79
2018-01-22T14:47:59.433Z,94.7
2018-01-22T14:49:09.597Z,94.79
2018-01-22T14:50:19.762Z,94.98
2018-01-22T14:51:29.958Z,94.79
2018-01-22T14:52:40.184Z,95.07
2018-01-22T14:53:50.419Z,94.79
2018-01-22T14:55:00.557Z,94.98
2018-01-22T14:56:10.785Z,94.89
2018-01-22T14:57:20.945Z,95.45
2018-01-22T14:58:31.130Z,95.36
2018-01-22T14:59:41.261Z,95.17
2018-01-22T15:00:51.429Z,95.26
2018-01-22T15:02:01.545Z,95.36
2018-01-22T15:03:11.782Z,95.55
2018-01-22T15:04:21.965Z,95.36
2018-01-22T15:05:32.252Z,95.26
2018-01-22T15:06:42.456Z,95.26
2018-01-22T15:07:52.619Z,95.83
2018-01-22T15:09:03.784Z,95.55
2018-01-22T15:10:13.929Z,95.74